Time;durP1;ratioP1;P1;durP2;ratioP2;P2;SDS_P1;SDS_P2;PMS_P1;PMS_P2;Temp;Humidity;BMP_temperature;BMP_pressure;BME280_temperature;BME280_humidity;BME280_pressure;Samples;Min_cycle;Max_cycle;Signal;HPM_P1;HPM_P2
2022/11/08 00:01:40;;;;;;;9.03;7.00;;;8.60;99.90;;;;;;5036132;28;20486;-68
2022/11/08 00:04:11;;;;;;;8.30;7.47;;;8.50;99.90;;;;;;5043561;28;20871;-67
2022/11/08 00:14:52;;;;;;;10.37;7.03;;;8.40;99.90;;;;;;5040485;28;20455;-68
2022/11/08 00:17:20;;;;;;;7.80;7.00;;;8.40;99.90;;;;;;5045352;28;20431;-68
2022/11/08 00:19:45;;;;;;;8.10;6.63;;;8.30;99.90;;;;;;5046055;28;20546;-67
2022/11/08 00:22:12;;;;;;;8.50;6.27;;;8.30;99.90;;;;;;5039486;28;20472;-68
2022/11/08 00:24:38;;;;;;;7.10;6.40;;;8.30;99.90;;;;;;5045626;28;20180;-68
2022/11/08 00:27:09;;;;;;;9.43;6.53;;;8.20;99.90;;;;;;5037534;28;20425;-68
2022/11/08 00:29:35;;;;;;;8.37;6.80;;;8.10;99.90;;;;;;5032633;28;20934;-68
2022/11/08 00:32:06;;;;;;;8.20;6.03;;;8.10;99.90;;;;;;5044284;28;20488;-68
2022/11/08 00:34:33;;;;;;;10.17;5.90;;;8.10;99.90;;;;;;5038298;28;20433;-68
2022/11/08 00:36:58;;;;;;;6.97;6.37;;;8.10;99.90;;;;;;5040364;28;20461;-68
2022/11/08 00:39:24;;;;;;;6.73;5.97;;;8.10;99.90;;;;;;5046530;28;20498;-70
2022/11/08 00:41:50;;;;;;;6.27;5.63;;;8.10;99.90;;;;;;5036766;28;20198;-68
2022/11/08 00:44:15;;;;;;;7.27;5.80;;;8.10;99.90;;;;;;5034129;28;20674;-68
2022/11/08 00:46:41;;;;;;;6.60;6.00;;;8.10;99.90;;;;;;5036799;28;20945;-68
2022/11/08 00:49:07;;;;;;;8.63;5.40;;;8.10;99.90;;;;;;5041436;28;20170;-68
2022/11/08 00:51:33;;;;;;;5.97;5.37;;;8.10;99.90;;;;;;5033604;28;20693;-68
2022/11/08 00:53:59;;;;;;;8.90;4.93;;;8.00;99.90;;;;;;5045029;28;20515;-68
2022/11/08 00:56:25;;;;;;;7.20;5.70;;;8.00;99.90;;;;;;5040964;28;20174;-69
2022/11/08 00:58:50;;;;;;;5.80;5.20;;;7.90;99.90;;;;;;5040972;28;20221;-67
2022/11/08 01:01:18;;;;;;;5.90;5.30;;;7.90;99.90;;;;;;5042060;28;20256;-68
2022/11/08 01:03:45;;;;;;;6.43;5.50;;;7.90;99.90;;;;;;5031244;28;20173;-68
2022/11/08 01:06:12;;;;;;;8.53;5.83;;;7.90;99.90;;;;;;5040220;28;20473;-66
2022/11/08 01:08:39;;;;;;;10.43;5.87;;;7.90;99.90;;;;;;5039612;28;20433;-67
2022/11/08 01:11:08;;;;;;;5.90;5.30;;;7.90;99.90;;;;;;5037779;28;20476;-68
2022/11/08 01:13:34;;;;;;;5.37;4.87;;;7.90;99.90;;;;;;5030953;28;20443;-67
2022/11/08 01:16:11;;;;;;;7.13;4.90;;;7.80;99.90;;;;;;5044798;28;20439;-68
2022/11/08 01:18:38;;;;;;;5.40;4.90;;;7.70;99.90;;;;;;5036731;28;20500;-68
2022/11/08 01:21:04;;;;;;;5.53;5.03;;;7.80;99.90;;;;;;5034222;28;20452;-68
2022/11/08 01:23:30;;;;;;;5.90;5.00;;;7.80;99.90;;;;;;5042183;28;20800;-67
2022/11/08 01:26:02;;;;;;;4.93;4.20;;;7.80;99.90;;;;;;5044531;28;20941;-68
2022/11/08 01:28:27;;;;;;;8.57;5.60;;;7.70;99.90;;;;;;5037293;28;20436;-69
2022/11/08 01:30:53;;;;;;;5.10;4.40;;;7.70;99.90;;;;;;5041438;28;20535;-68
2022/11/08 01:33:18;;;;;;;7.87;6.07;;;7.70;99.90;;;;;;5042107;28;20601;-68
2022/11/08 01:35:45;;;;;;;5.83;5.10;;;7.70;99.90;;;;;;5044700;28;20257;-68
2022/11/08 01:38:10;;;;;;;5.80;5.23;;;7.70;99.90;;;;;;5043387;28;20227;-69
2022/11/08 01:40:47;;;;;;;9.13;5.07;;;7.60;99.90;;;;;;5041412;28;20768;-66
2022/11/08 01:43:24;;;;;;;7.70;5.27;;;7.60;99.90;;;;;;5038805;28;20228;-69
2022/11/08 01:46:09;;;;;;;6.03;4.40;;;7.60;99.90;;;;;;5043998;28;20511;-67
2022/11/08 01:48:39;;;;;;;4.77;3.97;;;7.50;99.90;;;;;;5034282;28;20436;-67
2022/11/08 01:51:07;;;;;;;5.93;4.93;;;7.50;99.90;;;;;;5040883;28;20457;-68
2022/11/08 01:53:32;;;;;;;5.93;4.70;;;7.40;99.90;;;;;;5025299;28;20469;-68
2022/11/08 01:55:58;;;;;;;4.83;4.43;;;7.40;99.90;;;;;;5042327;28;20910;-68
2022/11/08 01:58:27;;;;;;;5.47;4.97;;;7.40;99.90;;;;;;5041231;28;20289;-70
2022/11/08 02:00:52;;;;;;;5.80;4.30;;;7.40;99.90;;;;;;5035418;28;20173;-68
2022/11/08 02:03:19;;;;;;;6.87;4.77;;;7.50;99.90;;;;;;5041235;28;20425;-68
2022/11/08 02:05:46;;;;;;;6.10;4.40;;;7.40;99.90;;;;;;5043375;28;20185;-68
2022/11/08 02:08:35;;;;;;;5.23;4.17;;;7.50;99.90;;;;;;5042780;28;20447;-70
2022/11/08 02:11:02;;;;;;;5.57;4.63;;;7.40;99.90;;;;;;5039504;28;20492;-68
2022/11/08 02:13:30;;;;;;;6.60;4.97;;;7.40;99.90;;;;;;5041815;28;20440;-68
2022/11/08 02:15:56;;;;;;;5.77;4.23;;;7.40;99.90;;;;;;5036202;28;20862;-67
2022/11/08 02:18:25;;;;;;;4.90;4.03;;;7.40;99.90;;;;;;5041316;28;20467;-67
2022/11/08 02:20:57;;;;;;;4.60;4.17;;;7.40;99.90;;;;;;5039782;28;20830;-67
2022/11/08 02:23:27;;;;;;;5.90;3.97;;;7.40;99.90;;;;;;5041673;28;20437;-67
2022/11/08 02:25:53;;;;;;;8.13;5.20;;;7.30;99.90;;;;;;5041235;28;20427;-67
2022/11/08 02:28:19;;;;;;;4.57;4.07;;;7.30;99.90;;;;;;5040837;28;20427;-68
2022/11/08 02:30:44;;;;;;;4.87;4.33;;;7.30;99.90;;;;;;5035134;28;20261;-68
2022/11/08 02:33:18;;;;;;;5.43;4.50;;;7.20;99.90;;;;;;5036800;28;20182;-68
2022/11/08 02:35:48;;;;;;;4.70;4.13;;;7.20;99.90;;;;;;5040355;28;20173;-67
2022/11/08 02:38:13;;;;;;;4.47;4.07;;;7.10;99.90;;;;;;5034670;28;20463;-69
2022/11/08 02:40:53;;;;;;;4.10;3.40;;;7.20;99.90;;;;;;5046497;28;20427;-69
2022/11/08 02:43:19;;;;;;;4.37;3.97;;;7.20;99.90;;;;;;5034755;28;20176;-68
2022/11/08 02:45:45;;;;;;;4.03;3.73;;;7.30;99.90;;;;;;5038299;28;20455;-67
2022/11/08 02:48:11;;;;;;;4.43;4.03;;;7.20;99.90;;;;;;5035970;28;20953;-67
2022/11/08 02:50:37;;;;;;;4.93;3.83;;;7.20;99.90;;;;;;5036766;28;20515;-68
2022/11/08 02:53:03;;;;;;;4.43;4.03;;;7.20;99.90;;;;;;5039196;28;20514;-67
2022/11/08 02:55:29;;;;;;;7.00;3.97;;;7.20;99.90;;;;;;5038762;28;20838;-67
2022/11/08 02:57:55;;;;;;;5.87;3.93;;;7.10;99.90;;;;;;5032019;28;20209;-68
2022/11/08 03:00:21;;;;;;;4.83;4.00;;;7.10;99.90;;;;;;5041907;28;20175;-69
2022/11/08 03:02:50;;;;;;;5.70;3.43;;;7.10;99.90;;;;;;5036554;28;20460;-67
2022/11/08 03:05:16;;;;;;;7.10;3.93;;;7.10;99.90;;;;;;5038243;28;20437;-68
2022/11/08 03:07:43;;;;;;;4.47;3.87;;;7.10;99.90;;;;;;5030207;28;20519;-68
2022/11/08 03:10:09;;;;;;;4.10;3.70;;;7.10;99.90;;;;;;5040001;28;20432;-67
2022/11/08 03:12:35;;;;;;;4.73;4.30;;;7.00;99.90;;;;;;5043384;28;20930;-68
2022/11/08 03:15:00;;;;;;;5.57;4.10;;;7.10;99.90;;;;;;5042915;28;20535;-68
2022/11/08 03:17:26;;;;;;;4.40;3.97;;;7.00;99.90;;;;;;5038579;28;20319;-70
2022/11/08 03:19:52;;;;;;;6.47;5.00;;;7.00;99.90;;;;;;5037921;28;20190;-68
2022/11/08 03:22:18;;;;;;;4.80;3.50;;;7.00;99.90;;;;;;5041680;28;20193;-68
2022/11/08 03:24:43;;;;;;;4.13;3.73;;;6.90;99.90;;;;;;5043481;28;20928;-67
2022/11/08 03:27:09;;;;;;;4.93;3.67;;;6.90;99.90;;;;;;5046579;28;20662;-68
2022/11/08 03:29:34;;;;;;;4.90;4.50;;;6.90;99.90;;;;;;5040420;28;20182;-67
2022/11/08 03:32:00;;;;;;;5.07;4.20;;;6.80;99.90;;;;;;5043483;28;20206;-67
2022/11/08 03:34:25;;;;;;;7.67;3.60;;;6.80;99.90;;;;;;5046535;28;20185;-68
2022/11/08 03:36:51;;;;;;;6.03;4.40;;;6.80;99.90;;;;;;5034258;28;20668;-67
2022/11/08 03:39:17;;;;;;;7.90;4.00;;;6.80;99.90;;;;;;5036532;28;20201;-66
2022/11/08 03:41:42;;;;;;;4.67;3.70;;;6.80;99.90;;;;;;5042726;28;20213;-68
2022/11/08 03:44:08;;;;;;;5.10;4.60;;;6.80;99.90;;;;;;5040832;28;20274;-68
2022/11/08 03:46:33;;;;;;;6.53;4.00;;;6.80;99.90;;;;;;5035886;28;20236;-68
2022/11/08 03:48:59;;;;;;;5.03;4.60;;;6.80;99.90;;;;;;5041275;28;20174;-68
2022/11/08 03:51:24;;;;;;;8.20;4.40;;;6.70;99.90;;;;;;5045178;28;20240;-68
2022/11/08 03:53:50;;;;;;;4.13;3.70;;;6.70;99.90;;;;;;5039066;28;20643;-69
2022/11/08 03:56:15;;;;;;;4.80;3.90;;;6.60;99.90;;;;;;5037878;28;20280;-68
2022/11/08 03:58:41;;;;;;;4.60;4.10;;;6.60;99.90;;;;;;5046326;28;20220;-67
2022/11/08 04:01:06;;;;;;;4.90;3.87;;;6.60;99.90;;;;;;5039553;28;20567;-67
2022/11/08 04:03:32;;;;;;;5.30;4.03;;;6.60;99.90;;;;;;5035646;28;20705;-69
2022/11/08 04:06:01;;;;;;;4.20;3.77;;;6.60;99.90;;;;;;5039991;28;20275;-67
2022/11/08 04:08:28;;;;;;;6.20;4.00;;;6.60;99.90;;;;;;5039728;28;20260;-69
2022/11/08 04:10:55;;;;;;;4.83;3.70;;;6.60;99.90;;;;;;5046518;28;20470;-68
2022/11/08 04:16:06;;;;;;;4.77;3.83;;;6.60;99.90;;;;;;5037693;28;20479;-68
2022/11/08 04:21:19;;;;;;;3.90;3.47;;;6.60;99.90;;;;;;5049273;28;20455;-67
2022/11/08 04:23:46;;;;;;;4.80;4.30;;;6.60;99.90;;;;;;5045347;28;20515;-69
2022/11/08 04:26:11;;;;;;;5.03;4.20;;;6.50;99.90;;;;;;5044136;28;20444;-67
2022/11/08 04:28:38;;;;;;;5.73;4.13;;;6.50;99.90;;;;;;5041609;28;20450;-68
2022/11/08 04:31:14;;;;;;;5.27;3.60;;;6.50;99.90;;;;;;5039842;28;20202;-69
2022/11/08 04:33:40;;;;;;;4.90;3.80;;;6.50;99.90;;;;;;5035485;28;20508;-67
2022/11/08 04:36:09;;;;;;;4.83;3.70;;;6.50;99.90;;;;;;5043788;28;20439;-68
2022/11/08 04:38:35;;;;;;;3.90;3.50;;;6.50;99.90;;;;;;5043192;28;20495;-69
2022/11/08 04:41:21;;;;;;;6.30;4.40;;;6.40;99.90;;;;;;5044917;28;21023;-69
2022/11/08 04:43:47;;;;;;;7.20;3.97;;;6.30;99.90;;;;;;5043116;28;20435;-67
2022/11/08 04:46:17;;;;;;;4.17;3.40;;;6.30;99.90;;;;;;5042772;28;20436;-68
2022/11/08 04:48:43;;;;;;;4.77;4.07;;;6.30;99.90;;;;;;5045841;28;20440;-70
2022/11/08 04:51:12;;;;;;;6.93;6.23;;;6.30;99.90;;;;;;5045029;28;20461;-68
2022/11/08 04:53:37;;;;;;;5.27;3.53;;;6.30;99.90;;;;;;5030970;28;20440;-68
2022/11/08 04:56:08;;;;;;;5.87;4.80;;;6.30;99.90;;;;;;5035656;28;20516;-67
2022/11/08 04:58:39;;;;;;;4.83;4.00;;;6.30;99.90;;;;;;5044730;28;20205;-67
2022/11/08 05:01:06;;;;;;;9.23;5.33;;;6.40;99.90;;;;;;5039634;28;20534;-69
2022/11/08 05:03:32;;;;;;;7.47;5.60;;;6.60;99.90;;;;;;5040254;28;20430;-68
2022/11/08 05:06:03;;;;;;;6.07;4.70;;;6.60;99.90;;;;;;5043533;28;20485;-68
2022/11/08 05:08:29;;;;;;;5.70;4.17;;;6.70;99.90;;;;;;5044472;28;20436;-67
2022/11/08 05:11:01;;;;;;;4.70;4.30;;;6.70;99.90;;;;;;5035012;28;20482;-67
2022/11/08 05:13:26;;;;;;;7.00;5.50;;;6.80;99.90;;;;;;5050997;28;20181;-69
2022/11/08 05:15:52;;;;;;;4.50;4.10;;;6.80;99.90;;;;;;5037072;28;20518;-69
2022/11/08 05:18:17;;;;;;;7.33;5.13;;;6.90;99.90;;;;;;5040900;28;20737;-68
2022/11/08 05:23:27;;;;;;;6.20;4.60;;;6.90;99.90;;;;;;5042502;28;20185;-68
2022/11/08 05:25:54;;;;;;;7.63;4.90;;;6.90;99.90;;;;;;5035292;28;20416;-68
2022/11/08 05:28:20;;;;;;;6.57;4.60;;;6.90;99.90;;;;;;5034153;28;20186;-68
2022/11/08 05:30:56;;;;;;;5.50;4.90;;;6.90;99.90;;;;;;5039839;28;20493;-69
2022/11/08 05:33:22;;;;;;;6.80;6.03;;;6.80;99.90;;;;;;5038192;28;20523;-69
2022/11/08 05:35:48;;;;;;;5.67;4.50;;;6.80;99.90;;;;;;5031714;28;20429;-69
2022/11/08 05:38:13;;;;;;;9.87;4.70;;;6.80;99.90;;;;;;5036510;28;20478;-68
2022/11/08 05:40:39;;;;;;;6.07;5.00;;;6.80;99.90;;;;;;5039992;28;20196;-68
2022/11/08 05:43:05;;;;;;;4.70;4.30;;;6.80;99.90;;;;;;5040354;28;20614;-68
2022/11/08 05:45:30;;;;;;;5.40;4.90;;;6.80;99.90;;;;;;5029531;28;20182;-69
2022/11/08 05:48:02;;;;;;;5.37;4.20;;;6.70;99.90;;;;;;5033533;28;20206;-68
2022/11/08 05:50:31;;;;;;;9.17;6.20;;;6.70;99.90;;;;;;5042514;28;20177;-68
2022/11/08 05:52:57;;;;;;;5.33;4.70;;;6.70;99.90;;;;;;5035228;28;20456;-69
2022/11/08 05:55:22;;;;;;;7.43;4.90;;;6.70;99.90;;;;;;5034685;28;20440;-68
2022/11/08 05:57:48;;;;;;;5.90;4.47;;;6.60;99.90;;;;;;5035880;28;20206;-68
2022/11/08 06:00:14;;;;;;;8.90;4.73;;;6.60;99.90;;;;;;5040743;28;20405;-69
2022/11/08 06:02:39;;;;;;;6.47;5.43;;;6.70;99.90;;;;;;5036115;28;20186;-68
2022/11/08 06:05:06;;;;;;;8.77;5.60;;;6.80;99.90;;;;;;5034330;28;20168;-69
2022/11/08 06:07:32;;;;;;;7.20;6.47;;;6.80;99.90;;;;;;5038490;28;20174;-69
2022/11/08 06:09:58;;;;;;;7.50;5.33;;;6.80;99.90;;;;;;5037735;28;20441;-68
2022/11/08 06:12:23;;;;;;;9.90;5.93;;;6.80;99.90;;;;;;5043458;28;20228;-68
2022/11/08 06:14:49;;;;;;;6.53;5.30;;;6.80;99.90;;;;;;5034469;28;20181;-68
2022/11/08 06:17:14;;;;;;;7.13;5.90;;;6.80;99.90;;;;;;5034182;28;20206;-68
2022/11/08 06:19:40;;;;;;;10.80;6.37;;;6.80;99.90;;;;;;5047585;28;20202;-67
2022/11/08 06:22:06;;;;;;;7.00;4.97;;;6.90;99.90;;;;;;5032616;28;20190;-69
2022/11/08 06:24:31;;;;;;;5.40;4.90;;;6.90;99.90;;;;;;5028034;28;20269;-66
2022/11/08 06:26:57;;;;;;;5.10;4.70;;;6.90;99.90;;;;;;5029835;28;20634;-67
2022/11/08 06:29:22;;;;;;;5.17;4.57;;;6.90;99.90;;;;;;5031425;28;20178;-67
2022/11/08 06:31:48;;;;;;;7.87;6.33;;;7.00;99.90;;;;;;5037055;28;20205;-67
2022/11/08 06:34:13;;;;;;;7.63;5.60;;;7.00;99.90;;;;;;5043179;28;20182;-67
2022/11/08 06:36:39;;;;;;;11.93;6.83;;;7.20;99.90;;;;;;5045099;28;20181;-67
2022/11/08 06:39:05;;;;;;;10.77;8.80;;;7.30;99.90;;;;;;5052036;28;20236;-68
2022/11/08 06:41:31;;;;;;;10.50;8.17;;;7.30;99.90;;;;;;5052384;28;20816;-67
2022/11/08 06:43:57;;;;;;;25.30;12.57;;;7.30;99.90;;;;;;5052434;28;20164;-67
2022/11/08 06:46:23;;;;;;;10.87;7.00;;;7.30;99.90;;;;;;5052243;28;20412;-67
2022/11/08 06:48:48;;;;;;;9.00;6.63;;;7.30;99.90;;;;;;5051965;28;20162;-67
2022/11/08 06:51:14;;;;;;;7.40;6.37;;;7.30;99.90;;;;;;5052137;28;20193;-68
2022/11/08 06:53:39;;;;;;;11.90;6.80;;;7.30;99.90;;;;;;5052255;28;20166;-67
2022/11/08 06:56:05;;;;;;;7.80;5.37;;;7.30;99.90;;;;;;5052163;28;20173;-67
2022/11/08 06:58:31;;;;;;;8.17;5.67;;;7.50;99.90;;;;;;5051808;28;20291;-67
2022/11/08 07:00:56;;;;;;;5.90;4.50;;;7.60;99.90;;;;;;5051561;28;20611;-67
2022/11/08 07:03:22;;;;;;;6.30;5.47;;;7.70;99.90;;;;;;5052063;28;20169;-67
2022/11/08 07:05:47;;;;;;;6.57;5.17;;;7.80;99.90;;;;;;5052030;28;20173;-68
2022/11/08 07:08:13;;;;;;;5.13;4.67;;;7.80;99.90;;;;;;5051733;28;20210;-68
2022/11/08 07:10:39;;;;;;;10.53;5.50;;;7.90;99.90;;;;;;5051974;28;20239;-67
2022/11/08 07:13:12;;;;;;;8.03;5.27;;;8.00;99.90;;;;;;5052009;28;20172;-67
2022/11/08 07:15:38;;;;;;;5.00;4.50;;;8.20;99.90;;;;;;5051940;28;20428;-67
2022/11/08 07:18:06;;;;;;;4.97;4.20;;;8.60;99.90;;;;;;5051829;28;20543;-66
2022/11/08 07:20:32;;;;;;;4.43;3.87;;;8.70;99.90;;;;;;5051689;28;20450;-67
2022/11/08 07:22:58;;;;;;;4.20;3.80;;;8.80;99.90;;;;;;5051871;28;21067;-66
2022/11/08 07:25:25;;;;;;;4.93;4.33;;;8.90;99.90;;;;;;5051883;28;20929;-66
2022/11/08 07:27:54;;;;;;;3.77;3.47;;;9.00;99.90;;;;;;5051831;28;20416;-67
2022/11/08 07:30:20;;;;;;;4.90;3.47;;;9.10;99.90;;;;;;5051547;28;20507;-67
2022/11/08 07:32:46;;;;;;;5.33;4.10;;;9.20;99.90;;;;;;5007792;28;20819;-69
2022/11/08 07:35:11;;;;;;;3.87;3.47;;;9.50;99.90;;;;;;5013937;28;20185;-67
2022/11/08 07:37:37;;;;;;;5.33;4.50;;;9.80;99.90;;;;;;5031401;28;20551;-67
2022/11/08 07:40:02;;;;;;;4.20;3.80;;;9.80;99.90;;;;;;5031617;28;20172;-67
2022/11/08 07:42:28;;;;;;;4.17;3.50;;;9.90;99.90;;;;;;5024960;28;20202;-68
2022/11/08 07:44:53;;;;;;;4.03;3.63;;;10.10;99.90;;;;;;5027336;28;20179;-68
2022/11/08 07:47:19;;;;;;;4.70;3.43;;;9.90;99.90;;;;;;5031223;28;20170;-68
2022/11/08 07:49:44;;;;;;;7.80;4.17;;;9.50;99.90;;;;;;5031372;28;20526;-68
2022/11/08 07:52:10;;;;;;;6.50;4.90;;;9.40;99.90;;;;;;5027921;28;20202;-67
2022/11/08 07:54:35;;;;;;;7.80;5.77;;;9.30;99.90;;;;;;5031349;28;20648;-68
2022/11/08 07:57:01;;;;;;;12.40;4.67;;;9.80;99.90;;;;;;5031604;28;20170;-68
2022/11/08 07:59:26;;;;;;;6.13;3.87;;;10.80;99.90;;;;;;5030353;28;20197;-68
2022/11/08 08:01:52;;;;;;;6.00;4.07;;;12.00;99.90;;;;;;5028055;28;20198;-68
2022/11/08 08:04:17;;;;;;;3.77;3.47;;;12.90;99.90;;;;;;5031107;28;20167;-67
2022/11/08 08:06:43;;;;;;;4.50;4.10;;;13.50;99.90;;;;;;5031235;28;20531;-67
2022/11/08 08:09:09;;;;;;;4.73;4.33;;;13.90;99.90;;;;;;5031272;28;20182;-68
2022/11/08 08:11:34;;;;;;;4.67;3.97;;;14.00;99.90;;;;;;5027088;28;20655;-67
2022/11/08 08:14:00;;;;;;;5.63;4.00;;;14.10;99.90;;;;;;5034862;28;20182;-68
2022/11/08 08:16:25;;;;;;;6.50;5.03;;;13.80;99.90;;;;;;5034589;28;20185;-68
2022/11/08 08:18:51;;;;;;;4.30;3.90;;;14.00;99.90;;;;;;5043366;28;20675;-67
2022/11/08 08:21:16;;;;;;;4.67;4.20;;;14.30;99.90;;;;;;5033267;28;20194;-70
2022/11/08 08:23:42;;;;;;;6.77;4.87;;;15.10;99.90;;;;;;5033326;28;20594;-68
2022/11/08 08:26:08;;;;;;;4.17;3.57;;;15.70;99.90;;;;;;5034636;28;20182;-68
2022/11/08 08:28:33;;;;;;;4.30;3.67;;;16.00;99.90;;;;;;5034214;28;20178;-67
2022/11/08 08:30:59;;;;;;;7.27;3.47;;;16.40;99.90;;;;;;5034482;28;20220;-68
2022/11/08 08:33:25;;;;;;;4.70;4.30;;;16.70;99.90;;;;;;5031558;28;20339;-67
2022/11/08 08:35:53;;;;;;;4.57;4.03;;;17.10;99.90;;;;;;5034032;28;20190;-67
2022/11/08 08:38:19;;;;;;;4.23;2.90;;;17.30;99.90;;;;;;5034474;28;20206;-67
2022/11/08 08:40:45;;;;;;;5.80;3.33;;;16.80;99.90;;;;;;5034417;28;20424;-67
2022/11/08 08:43:10;;;;;;;6.53;3.30;;;16.70;99.90;;;;;;5032477;28;20189;-68
2022/11/08 08:45:36;;;;;;;4.17;3.77;;;16.80;99.90;;;;;;5034649;28;20252;-67
2022/11/08 08:48:02;;;;;;;3.30;3.10;;;17.00;99.90;;;;;;5033632;28;20605;-67
2022/11/08 08:50:29;;;;;;;4.00;3.07;;;16.60;99.90;;;;;;5034462;28;20500;-67
2022/11/08 08:53:03;;;;;;;3.97;3.57;;;16.20;99.90;;;;;;5031228;28;20259;-67
2022/11/08 08:55:29;;;;;;;3.50;3.30;;;15.70;99.90;;;;;;5033797;28;20486;-67
2022/11/08 08:57:55;;;;;;;6.97;4.67;;;15.40;99.90;;;;;;5034271;28;20460;-67
2022/11/08 09:00:22;;;;;;;3.60;3.30;;;15.40;99.90;;;;;;5033385;28;20315;-68
2022/11/08 09:02:47;;;;;;;3.70;3.37;;;15.30;99.90;;;;;;5031263;28;20445;-67
2022/11/08 09:05:13;;;;;;;5.20;3.10;;;15.30;99.90;;;;;;5034264;28;20413;-68
2022/11/08 09:07:40;;;;;;;2.90;2.60;;;15.60;99.90;;;;;;5033347;28;20189;-67
2022/11/08 09:10:07;;;;;;;4.13;3.20;;;15.60;99.90;;;;;;5033938;28;20511;-67
2022/11/08 09:12:33;;;;;;;3.67;3.20;;;15.50;99.90;;;;;;5029722;28;20840;-67
2022/11/08 09:14:59;;;;;;;3.70;3.40;;;15.70;99.90;;;;;;5034108;28;20467;-68
2022/11/08 09:17:27;;;;;;;4.27;3.63;;;17.00;99.90;;;;;;5033296;28;20508;-67
2022/11/08 09:19:52;;;;;;;3.67;3.00;;;19.60;99.90;;;;;;5033288;28;20447;-67
2022/11/08 09:22:18;;;;;;;3.03;2.73;;;21.90;99.10;;;;;;5030239;28;20969;-67
2022/11/08 09:24:44;;;;;;;4.20;2.63;;;23.80;92.70;;;;;;5033059;28;20526;-68
2022/11/08 09:27:09;;;;;;;2.87;2.40;;;25.80;82.00;;;;;;5033805;28;20178;-68
2022/11/08 09:29:35;;;;;;;3.50;2.70;;;26.70;75.40;;;;;;5033200;28;20171;-68
2022/11/08 09:32:00;;;;;;;2.27;1.80;;;26.20;69.20;;;;;;5029750;28;20224;-68
2022/11/08 09:34:26;;;;;;;4.40;1.30;;;24.00;63.30;;;;;;5033524;28;20177;-67
2022/11/08 09:36:52;;;;;;;1.93;1.83;;;22.70;65.50;;;;;;5032580;28;20212;-67
2022/11/08 09:39:18;;;;;;;2.00;1.80;;;21.00;71.10;;;;;;5033251;28;20457;-68
2022/11/08 09:42:07;;;;;;;2.80;2.00;;;20.80;74.60;;;;;;5029546;28;20209;-68
2022/11/08 09:44:56;;;;;;;2.00;1.80;;;20.80;73.90;;;;;;5020513;28;20563;-68
2022/11/08 09:47:23;;;;;;;4.40;2.40;;;20.90;74.00;;;;;;5038045;28;20411;-67
2022/11/08 09:50:07;;;;;;;4.23;1.83;;;20.60;75.90;;;;;;5032772;28;20482;-68
2022/11/08 09:52:34;;;;;;;2.97;1.70;;;19.90;78.80;;;;;;5029962;28;20468;-67
2022/11/08 09:55:27;;;;;;;1.93;1.73;;;19.30;79.00;;;;;;5032320;28;20425;-67
2022/11/08 09:58:01;;;;;;;3.87;1.90;;;18.40;84.20;;;;;;5031047;28;20539;-67
2022/11/08 10:00:27;;;;;;;5.73;1.90;;;17.90;89.10;;;;;;5039599;28;20434;-67
2022/11/08 10:02:53;;;;;;;1.70;1.60;;;17.60;91.20;;;;;;5030990;28;20961;-67
2022/11/08 10:05:19;;;;;;;1.93;1.77;;;17.40;92.30;;;;;;5032413;28;20425;-68
2022/11/08 10:08:01;;;;;;;1.87;1.77;;;16.80;93.80;;;;;;5032731;28;20710;-68
2022/11/08 10:10:54;;;;;;;1.90;1.80;;;16.30;96.30;;;;;;5032804;28;20932;-68
2022/11/08 10:13:52;;;;;;;4.10;2.80;;;16.00;97.50;;;;;;5029368;28;20506;-67
2022/11/08 10:16:39;;;;;;;2.10;2.00;;;15.90;99.00;;;;;;5004554;28;20450;-67
2022/11/08 10:19:20;;;;;;;2.87;2.67;;;15.70;99.90;;;;;;5030849;28;20467;-68
2022/11/08 10:22:11;;;;;;;2.90;1.80;;;15.70;99.90;;;;;;5029527;28;20436;-67
2022/11/08 10:24:45;;;;;;;3.30;1.80;;;15.80;99.90;;;;;;5032167;28;20405;-68
2022/11/08 10:27:21;;;;;;;3.67;2.87;;;15.80;99.90;;;;;;5032492;28;20440;-68
2022/11/08 10:29:53;;;;;;;2.00;1.80;;;15.90;99.90;;;;;;5032443;28;20412;-68
2022/11/08 10:32:21;;;;;;;4.33;2.30;;;16.10;99.90;;;;;;5036522;28;20436;-68
2022/11/08 10:35:01;;;;;;;2.60;2.40;;;16.00;99.90;;;;;;5032017;28;20413;-68
2022/11/08 10:37:28;;;;;;;2.67;2.47;;;16.10;99.90;;;;;;5032050;28;20943;-68
2022/11/08 10:40:18;;;;;;;3.60;2.40;;;16.30;99.90;;;;;;5031847;28;20941;-68
2022/11/08 10:42:49;;;;;;;2.23;2.13;;;16.50;99.90;;;;;;5028927;28;21048;-68
2022/11/08 10:45:14;;;;;;;4.50;2.90;;;16.60;99.90;;;;;;5031631;28;20412;-68
2022/11/08 10:47:43;;;;;;;10.13;7.40;;;17.20;98.30;;;;;;5032344;28;20405;-68
2022/11/08 10:50:19;;;;;;;4.50;2.50;;;17.90;97.00;;;;;;5031612;28;20193;-68
2022/11/08 10:52:50;;;;;;;2.67;2.07;;;18.30;94.20;;;;;;5028652;28;20996;-68
2022/11/08 10:55:26;;;;;;;3.93;1.90;;;18.60;94.00;;;;;;5031836;28;20420;-68
2022/11/08 10:57:52;;;;;;;2.93;2.73;;;18.90;92.60;;;;;;5031698;28;20823;-68
2022/11/08 11:00:20;;;;;;;4.20;2.63;;;19.50;91.50;;;;;;5031914;28;20424;-68
2022/11/08 11:03:27;;;;;;;2.67;2.03;;;19.00;91.30;;;;;;5028149;28;20194;-68
2022/11/08 11:06:04;;;;;;;2.70;2.50;;;18.80;91.80;;;;;;5012540;28;20413;-67
2022/11/08 11:08:30;;;;;;;7.63;2.30;;;18.90;91.40;;;;;;5025588;28;20416;-68
2022/11/08 11:11:23;;;;;;;1.90;1.80;;;18.90;90.90;;;;;;5033463;28;20456;-67
2022/11/08 11:14:08;;;;;;;2.10;2.00;;;19.20;90.90;;;;;;5031628;28;20425;-67
2022/11/08 11:16:35;;;;;;;2.17;1.97;;;18.90;90.90;;;;;;5031953;28;20413;-68
2022/11/08 11:19:01;;;;;;;3.00;2.80;;;18.40;92.10;;;;;;5031714;28;20464;-67
2022/11/08 11:21:34;;;;;;;1.93;1.83;;;18.00;93.30;;;;;;5028159;28;20449;-68
2022/11/08 11:24:26;;;;;;;2.27;2.07;;;17.90;94.70;;;;;;5031493;28;20413;-68
2022/11/08 11:26:55;;;;;;;3.23;2.40;;;17.40;95.30;;;;;;5029007;28;20437;-64
2022/11/08 11:29:35;;;;;;;2.53;2.33;;;17.50;96.20;;;;;;5031548;28;20417;-66
2022/11/08 11:32:20;;;;;;;3.17;2.30;;;18.80;94.20;;;;;;5028450;28;20441;-65
2022/11/08 11:34:55;;;;;;;2.43;2.20;;;21.60;89.70;;;;;;5031219;28;20925;-65
2022/11/08 11:37:37;;;;;;;2.13;1.83;;;23.80;77.10;;;;;;5028039;28;20432;-65
2022/11/08 11:40:25;;;;;;;2.50;2.30;;;25.50;71.00;;;;;;5030897;28;20530;-68
2022/11/08 11:42:58;;;;;;;2.73;2.00;;;26.00;63.90;;;;;;5028327;28;20467;-67
2022/11/08 11:45:46;;;;;;;2.10;1.90;;;26.30;60.10;;;;;;5038800;28;20420;-67
2022/11/08 11:48:25;;;;;;;3.77;2.07;;;27.60;57.30;;;;;;5035034;28;20428;-68
2022/11/08 11:50:51;;;;;;;2.67;2.13;;;28.20;56.40;;;;;;5035170;28;20452;-68
2022/11/08 11:53:21;;;;;;;2.30;2.10;;;29.50;53.50;;;;;;5031890;28;20444;-68
2022/11/08 11:56:12;;;;;;;5.23;1.97;;;27.40;53.80;;;;;;5035265;28;20178;-68
2022/11/08 11:58:42;;;;;;;2.40;2.00;;;24.90;56.80;;;;;;5034822;28;20459;-68
2022/11/08 12:01:14;;;;;;;3.83;2.07;;;25.80;57.20;;;;;;5035409;28;20436;-68
2022/11/08 12:04:15;;;;;;;2.07;1.93;;;26.80;55.90;;;;;;5032546;28;20425;-68
2022/11/08 12:07:06;;;;;;;3.00;2.70;;;28.30;51.50;;;;;;5035284;28;20424;-67
2022/11/08 12:09:47;;;;;;;2.40;1.90;;;29.10;46.70;;;;;;5034304;28;20425;-68
2022/11/08 12:12:36;;;;;;;3.40;2.30;;;28.00;46.70;;;;;;5030740;28;20555;-69
2022/11/08 12:15:16;;;;;;;2.90;2.70;;;28.10;46.00;;;;;;5034933;28;20478;-68
2022/11/08 12:17:53;;;;;;;2.10;2.00;;;28.60;46.30;;;;;;5034710;28;20440;-67
2022/11/08 12:20:31;;;;;;;2.37;2.13;;;27.50;45.80;;;;;;5034159;28;20507;-67
2022/11/08 12:23:25;;;;;;;2.70;2.50;;;27.40;46.80;;;;;;5031252;28;20486;-67
2022/11/08 12:26:31;;;;;;;3.50;2.13;;;28.00;46.10;;;;;;5016325;28;20516;-68
2022/11/08 12:29:18;;;;;;;2.27;2.07;;;29.00;46.00;;;;;;5022781;28;20439;-68
2022/11/08 12:31:53;;;;;;;2.07;1.87;;;30.90;43.30;;;;;;5032005;28;20441;-68
2022/11/08 12:34:36;;;;;;;3.10;1.80;;;30.90;43.70;;;;;;5042566;28;20503;-68
2022/11/08 12:37:20;;;;;;;1.97;1.87;;;29.40;48.30;;;;;;5034966;28;20500;-67
2022/11/08 12:39:56;;;;;;;2.33;2.13;;;28.30;47.30;;;;;;5033991;28;20515;-67
2022/11/08 12:42:28;;;;;;;1.93;1.83;;;27.90;48.00;;;;;;5031020;28;20457;-68
2022/11/08 12:45:15;;;;;;;4.37;2.00;;;28.40;48.40;;;;;;5034734;28;20843;-67
2022/11/08 12:47:56;;;;;;;3.97;3.20;;;30.50;47.80;;;;;;5033833;28;20417;-68
2022/11/08 12:50:29;;;;;;;2.00;1.90;;;32.20;47.20;;;;;;5034427;28;20424;-67
2022/11/08 12:53:22;;;;;;;2.30;2.00;;;30.10;47.20;;;;;;5030636;28;20429;-67
2022/11/08 12:55:52;;;;;;;4.63;2.30;;;27.30;49.70;;;;;;5014772;28;20425;-67
2022/11/08 12:58:44;;;;;;;3.33;2.60;;;26.20;51.60;;;;;;5014483;28;20500;-68
2022/11/08 13:01:15;;;;;;;4.30;1.73;;;24.80;52.80;;;;;;5033349;28;20520;-67
2022/11/08 13:03:49;;;;;;;2.40;2.20;;;22.70;56.70;;;;;;5032425;28;20470;-67
2022/11/08 13:06:42;;;;;;;5.47;2.33;;;21.70;58.60;;;;;;5033377;28;20959;-69
2022/11/08 13:09:35;;;;;;;2.07;1.87;;;20.70;61.00;;;;;;5034029;28;20418;-67
2022/11/08 13:12:04;;;;;;;3.23;2.90;;;20.70;62.00;;;;;;5031019;28;20460;-68
2022/11/08 13:14:31;;;;;;;2.07;1.90;;;21.30;60.00;;;;;;5033327;28;20428;-67
2022/11/08 13:17:25;;;;;;;2.20;2.00;;;21.60;59.50;;;;;;5034116;28;20798;-67
2022/11/08 13:19:56;;;;;;;2.70;2.50;;;21.80;59.00;;;;;;5032874;28;20557;-67
2022/11/08 13:22:28;;;;;;;2.50;2.30;;;21.70;60.70;;;;;;5031006;28;20440;-67
2022/11/08 13:25:16;;;;;;;3.67;3.10;;;21.60;61.70;;;;;;5033169;28;20503;-67